Time;durP1;ratioP1;P1;durP2;ratioP2;P2;SDS_P1;SDS_P2;PMS_P1;PMS_P2;Temp;Humidity;BMP_temperature;BMP_pressure;BME280_temperature;BME280_humidity;BME280_pressure;Samples;Min_cycle;Max_cycle;Signal;HPM_P1;HPM_P2
2021/05/11 04:00:14;;;;;;;35.95;22.90;;;13.60;99.90;;;;;;6028418;23;20688;31
2021/05/11 04:02:41;;;;;;;32.93;21.80;;;13.60;99.90;;;;;;4954600;28;20902;-64
2021/05/11 04:05:09;;;;;;;31.00;21.70;;;13.60;99.90;;;;;;4955216;29;20486;-64
2021/05/11 04:07:37;;;;;;;32.40;22.60;;;13.70;99.90;;;;;;4964873;28;20455;-64
2021/05/11 04:10:11;;;;;;;30.67;21.20;;;13.70;99.90;;;;;;4969399;29;20495;-64
2021/05/11 04:18:03;;;;;;;32.90;23.13;;;13.70;99.90;;;;;;4965540;29;20427;-64
2021/05/11 04:20:30;;;;;;;30.40;21.87;;;13.80;99.90;;;;;;4955412;29;21060;-64
2021/05/11 04:22:56;;;;;;;29.87;21.43;;;13.70;99.90;;;;;;4955795;29;20452;-64
2021/05/11 04:25:23;;;;;;;29.23;20.50;;;13.80;99.90;;;;;;4955542;29;21024;-63
2021/05/11 04:27:49;;;;;;;28.40;20.47;;;13.80;99.90;;;;;;4955261;29;20978;-64
2021/05/11 04:30:18;;;;;;;30.70;21.33;;;13.90;99.90;;;;;;4958237;28;20467;-65
2021/05/11 04:32:46;;;;;;;28.57;21.13;;;13.90;99.90;;;;;;4959681;28;20455;-63
2021/05/11 04:35:13;;;;;;;26.83;20.87;;;14.00;99.90;;;;;;4959591;29;20451;-64
2021/05/11 04:37:39;;;;;;;30.33;19.60;;;14.10;99.90;;;;;;4959801;29;20491;-63
2021/05/11 04:40:07;;;;;;;27.60;21.10;;;14.10;99.90;;;;;;4959615;29;20459;-63
2021/05/11 04:42:33;;;;;;;25.10;19.53;;;14.20;99.90;;;;;;4959753;28;20495;-65
2021/05/11 04:45:00;;;;;;;24.00;18.30;;;14.20;99.90;;;;;;4959659;29;20476;-64
2021/05/11 04:47:31;;;;;;;23.87;18.63;;;14.20;99.90;;;;;;4960067;29;20455;-64
2021/05/11 04:49:58;;;;;;;20.73;17.20;;;14.30;99.90;;;;;;4959556;29;20446;-63
2021/05/11 04:52:24;;;;;;;23.00;17.87;;;14.30;99.90;;;;;;4959284;29;20479;-63
2021/05/11 04:54:50;;;;;;;19.40;16.60;;;14.30;99.90;;;;;;4959011;29;20822;-63
2021/05/11 04:57:17;;;;;;;20.40;16.80;;;14.10;99.90;;;;;;4958897;29;20459;-62
2021/05/11 04:59:43;;;;;;;24.03;18.27;;;14.20;99.90;;;;;;4958546;29;20961;-63
2021/05/11 05:02:11;;;;;;;24.40;18.17;;;14.30;99.90;;;;;;4958640;29;20542;-62
2021/05/11 05:04:38;;;;;;;25.30;19.13;;;14.20;99.90;;;;;;4958607;29;20537;-64
2021/05/11 05:07:05;;;;;;;21.13;17.10;;;14.10;99.90;;;;;;4958239;29;20892;-62
2021/05/11 05:09:31;;;;;;;19.53;15.70;;;14.10;99.90;;;;;;4958889;29;20443;-63
2021/05/11 05:11:57;;;;;;;18.00;14.83;;;14.20;99.90;;;;;;4958578;29;20483;-63
2021/05/11 05:14:23;;;;;;;15.93;13.40;;;14.40;99.90;;;;;;4958532;29;20451;-62
2021/05/11 05:16:49;;;;;;;14.73;13.00;;;14.60;99.90;;;;;;4958127;29;20466;-63
2021/05/11 05:19:16;;;;;;;16.53;14.20;;;14.80;99.90;;;;;;4958397;29;20459;-63
2021/05/11 05:21:42;;;;;;;17.03;15.30;;;14.90;99.90;;;;;;4958244;29;20483;-63
2021/05/11 05:24:12;;;;;;;14.80;13.27;;;14.90;99.90;;;;;;4958234;29;20471;-64
2021/05/11 05:26:39;;;;;;;18.23;14.97;;;14.90;99.90;;;;;;4958370;29;20534;-62
2021/05/11 05:29:05;;;;;;;15.93;14.00;;;14.90;99.90;;;;;;4958593;29;20558;-63
2021/05/11 05:31:31;;;;;;;16.10;13.10;;;15.10;99.90;;;;;;4958311;29;20483;-64
2021/05/11 05:33:58;;;;;;;14.63;13.03;;;15.20;99.90;;;;;;4958204;29;20466;-65
2021/05/11 05:36:24;;;;;;;16.83;14.80;;;15.20;99.90;;;;;;4958493;29;20450;-63
2021/05/11 05:38:51;;;;;;;16.97;14.30;;;15.30;99.90;;;;;;4958220;29;20478;-64
2021/05/11 05:41:21;;;;;;;15.90;14.17;;;15.30;99.90;;;;;;4956775;28;20488;-63
2021/05/11 05:43:48;;;;;;;16.13;14.47;;;15.40;99.90;;;;;;4957994;29;20448;-62
2021/05/11 05:46:14;;;;;;;15.23;13.70;;;15.50;99.90;;;;;;4958345;29;20814;-62
2021/05/11 05:48:40;;;;;;;15.70;14.27;;;15.70;99.90;;;;;;4961188;29;20452;-63
2021/05/11 05:51:07;;;;;;;14.70;13.30;;;15.80;99.90;;;;;;4966686;29;20520;-64
2021/05/11 05:53:35;;;;;;;14.00;12.60;;;15.70;99.90;;;;;;4961672;28;20464;-63
2021/05/11 05:56:01;;;;;;;13.47;12.07;;;15.60;99.90;;;;;;4957999;29;20460;-63
2021/05/11 05:58:28;;;;;;;14.13;12.63;;;15.60;99.90;;;;;;4958149;29;20456;-63
2021/05/11 06:00:57;;;;;;;12.83;11.63;;;15.80;99.90;;;;;;4957601;29;20479;-63
2021/05/11 06:03:36;;;;;;;12.27;11.07;;;15.90;99.90;;;;;;4957805;29;20467;-63
2021/05/11 06:06:04;;;;;;;13.50;12.20;;;16.00;99.90;;;;;;4957379;29;20435;-63
2021/05/11 06:08:30;;;;;;;13.13;11.90;;;16.10;99.90;;;;;;4957536;29;20454;-63
2021/05/11 06:11:00;;;;;;;10.80;9.80;;;16.10;99.90;;;;;;4957415;29;20471;-63
2021/05/11 06:13:34;;;;;;;11.80;10.70;;;16.00;99.90;;;;;;4957478;29;20523;-63
2021/05/11 06:18:44;;;;;;;13.03;11.77;;;16.20;99.90;;;;;;4957172;29;20969;-63
2021/05/11 06:21:10;;;;;;;12.10;10.77;;;16.10;99.90;;;;;;4957288;29;20479;-63
2021/05/11 06:23:36;;;;;;;12.80;11.50;;;16.10;99.90;;;;;;4957261;29;20506;-63
2021/05/11 06:26:03;;;;;;;11.70;10.60;;;15.90;99.90;;;;;;4957214;29;20473;-63
2021/05/11 06:28:31;;;;;;;12.50;10.43;;;15.70;99.90;;;;;;4957132;29;20455;-63
2021/05/11 06:30:57;;;;;;;12.80;11.50;;;15.70;99.90;;;;;;4957071;29;20574;-63
2021/05/11 06:33:23;;;;;;;13.43;12.13;;;15.70;99.90;;;;;;4957276;29;20459;-64
2021/05/11 06:35:52;;;;;;;14.30;12.67;;;15.70;99.90;;;;;;4957113;29;20459;-63
2021/05/11 06:38:18;;;;;;;14.20;11.27;;;15.60;99.90;;;;;;4957042;29;20502;-63
2021/05/11 06:40:45;;;;;;;14.13;12.57;;;15.60;99.90;;;;;;4956613;29;20476;-64
2021/05/11 06:43:11;;;;;;;13.53;12.23;;;15.60;99.90;;;;;;4957048;29;20522;-63
2021/05/11 06:48:21;;;;;;;13.33;11.93;;;15.60;99.90;;;;;;4944333;28;20538;-64
2021/05/11 06:53:31;;;;;;;14.07;11.70;;;15.70;99.90;;;;;;4936491;28;20467;-65
2021/05/11 06:55:58;;;;;;;12.70;11.50;;;15.60;99.90;;;;;;4956569;29;20970;-63
2021/05/11 06:58:24;;;;;;;14.90;12.13;;;15.70;99.90;;;;;;4957373;28;20515;-63
2021/05/11 07:00:52;;;;;;;13.00;11.63;;;15.70;99.90;;;;;;4956642;29;20487;-63
2021/05/11 07:03:19;;;;;;;14.13;12.60;;;15.70;99.90;;;;;;4957048;29;20462;-63
2021/05/11 07:05:47;;;;;;;14.53;12.03;;;15.90;99.90;;;;;;4956417;28;20515;-64
2021/05/11 07:08:16;;;;;;;12.57;11.40;;;15.80;99.90;;;;;;4956448;29;20939;-63
2021/05/11 07:10:46;;;;;;;11.60;10.60;;;15.80;99.90;;;;;;4956345;29;20638;-64
2021/05/11 07:13:13;;;;;;;13.10;11.77;;;15.90;99.90;;;;;;4956493;29;20443;-64
2021/05/11 07:15:41;;;;;;;13.47;12.20;;;15.90;99.90;;;;;;4956497;29;20878;-64
2021/05/11 07:18:16;;;;;;;12.70;11.50;;;16.00;99.90;;;;;;4956242;29;20459;-63
2021/05/11 07:20:44;;;;;;;12.53;11.37;;;16.00;99.90;;;;;;4956262;29;20479;-64
2021/05/11 07:23:10;;;;;;;11.87;10.80;;;16.00;99.90;;;;;;4956247;29;20941;-64
2021/05/11 07:25:47;;;;;;;13.23;11.23;;;16.10;99.90;;;;;;4955915;29;20480;-64
2021/05/11 07:31:01;;;;;;;12.40;11.30;;;16.10;99.90;;;;;;4956314;29;20554;-63
2021/05/11 07:33:31;;;;;;;10.50;9.60;;;16.00;99.90;;;;;;4956459;29;20471;-63
2021/05/11 07:35:58;;;;;;;12.10;11.00;;;15.80;99.90;;;;;;4956401;29;20491;-65
2021/05/11 07:38:27;;;;;;;11.60;10.50;;;15.70;99.90;;;;;;4956518;29;20455;-64
2021/05/11 07:40:53;;;;;;;10.97;9.97;;;15.80;99.90;;;;;;4956191;29;20475;-65
2021/05/11 07:43:21;;;;;;;10.40;9.40;;;15.70;99.90;;;;;;4961850;29;20481;-63
2021/05/11 07:46:09;;;;;;;10.90;9.70;;;15.80;99.90;;;;;;4965542;29;20486;-63
2021/05/11 07:48:50;;;;;;;8.53;7.83;;;15.90;99.90;;;;;;4964743;29;20789;-62
2021/05/11 08:02:32;;;;;;;9.17;8.47;;;16.10;99.90;;;;;;4963674;29;20474;-62
2021/05/11 08:05:03;;;;;;;7.60;7.00;;;16.30;99.90;;;;;;4963320;28;20590;-63
2021/05/11 08:10:32;;;;;;;8.20;7.50;;;16.20;99.90;;;;;;4965810;28;20440;-62
2021/05/11 08:15:48;;;;;;;7.70;7.00;;;16.20;99.90;;;;;;4966086;29;20431;-63
2021/05/11 08:18:20;;;;;;;7.13;6.60;;;16.30;99.90;;;;;;4958750;29;20443;-62
2021/05/11 08:29:15;;;;;;;7.23;6.60;;;16.60;99.90;;;;;;4956079;29;20419;-65
2021/05/11 08:31:41;;;;;;;6.67;6.17;;;16.70;99.90;;;;;;4955807;29;20584;-64
2021/05/11 08:34:07;;;;;;;6.97;6.47;;;16.60;99.90;;;;;;4960988;29;20460;-64
2021/05/11 08:36:34;;;;;;;7.07;6.47;;;16.60;99.90;;;;;;4966115;29;20451;-65
2021/05/11 08:39:00;;;;;;;6.90;6.30;;;16.70;99.90;;;;;;4965992;29;20456;-65
2021/05/11 08:41:27;;;;;;;6.80;6.20;;;16.80;99.90;;;;;;4965156;29;20479;-63
2021/05/11 08:43:53;;;;;;;6.37;5.77;;;16.80;99.90;;;;;;4965330;29;20448;-63
2021/05/11 08:46:19;;;;;;;7.00;6.37;;;16.70;99.90;;;;;;4963476;29;20518;-65
2021/05/11 08:48:47;;;;;;;5.93;5.43;;;16.80;99.90;;;;;;4963850;29;20466;-62
2021/05/11 08:51:17;;;;;;;5.57;5.17;;;16.90;99.90;;;;;;4963527;29;20515;-62
2021/05/11 08:54:08;;;;;;;6.77;6.13;;;17.00;99.90;;;;;;4964740;29;20923;-63
2021/05/11 09:05:04;;;;;;;5.70;5.30;;;17.40;99.90;;;;;;4956419;29;20458;-63
2021/05/11 09:27:21;;;;;;;5.70;5.30;;;18.10;99.90;;;;;;4959807;29;20455;-64
2021/05/11 09:30:02;;;;;;;5.67;5.17;;;17.90;99.90;;;;;;4959988;29;20446;-64
2021/05/11 09:32:40;;;;;;;6.50;6.00;;;17.90;99.90;;;;;;4959565;29;20478;-64
2021/05/11 09:52:23;;;;;;;6.70;6.20;;;17.60;99.90;;;;;;4958568;29;20467;-62
2021/05/11 09:54:58;;;;;;;6.10;5.73;;;17.90;99.90;;;;;;4958276;28;20806;-64
2021/05/11 09:57:38;;;;;;;7.80;7.20;;;17.50;99.90;;;;;;4958142;29;20447;-64
2021/05/11 10:00:52;;;;;;;6.90;6.50;;;17.60;99.90;;;;;;4957717;28;20448;-65
2021/05/11 10:36:15;;;;;;;8.53;7.93;;;18.90;99.90;;;;;;4957463;29;20470;-63
2021/05/11 10:41:30;;;;;;;8.80;8.00;;;18.90;99.90;;;;;;4956831;29;20466;-64
2021/05/11 10:46:54;;;;;;;7.77;7.17;;;19.20;99.90;;;;;;4902367;28;20803;-64
2021/05/11 10:49:31;;;;;;;7.83;7.27;;;19.20;99.90;;;;;;4957022;28;20782;-64
2021/05/11 10:52:08;;;;;;;8.00;7.40;;;18.90;99.90;;;;;;4956790;29;20509;-64
2021/05/11 10:54:36;;;;;;;8.20;7.50;;;18.90;99.90;;;;;;4956720;29;20436;-64
2021/05/11 10:57:05;;;;;;;8.43;7.90;;;18.90;99.90;;;;;;4956280;29;20947;-64
2021/05/11 10:59:54;;;;;;;6.83;6.43;;;19.00;99.90;;;;;;4956961;29;20506;-64
2021/05/11 11:05:33;;;;;;;8.27;7.67;;;19.10;99.90;;;;;;4956703;29;20463;-63
2021/05/11 11:08:00;;;;;;;9.03;8.43;;;19.10;99.90;;;;;;4956463;28;20452;-63
2021/05/11 11:10:30;;;;;;;8.20;7.67;;;19.00;99.90;;;;;;4956490;29;20459;-63
2021/05/11 11:12:57;;;;;;;9.07;8.47;;;18.90;99.90;;;;;;4956359;28;20444;-64
2021/05/11 11:15:23;;;;;;;10.37;9.67;;;19.00;99.90;;;;;;4956467;29;20531;-63
2021/05/11 11:17:52;;;;;;;11.27;10.37;;;19.00;99.90;;;;;;4955976;29;20937;-65
2021/05/11 11:20:23;;;;;;;12.97;11.93;;;18.90;99.90;;;;;;4956241;29;20459;-65
2021/05/11 11:26:00;;;;;;;10.90;10.10;;;19.00;99.90;;;;;;4956366;29;20459;-63
2021/05/11 11:28:30;;;;;;;11.40;10.50;;;19.00;99.90;;;;;;4956195;29;20459;-64
2021/05/11 11:30:56;;;;;;;11.83;11.03;;;19.20;99.90;;;;;;4956177;29;20560;-63
2021/05/11 11:33:22;;;;;;;13.20;12.30;;;19.40;99.90;;;;;;4956082;29;20463;-64
2021/05/11 11:35:49;;;;;;;16.53;15.10;;;19.40;99.90;;;;;;4955620;29;20490;-64
2021/05/11 11:38:23;;;;;;;15.40;14.00;;;19.60;99.90;;;;;;4955509;28;20467;-64
2021/05/11 11:40:57;;;;;;;14.27;13.07;;;19.70;99.90;;;;;;4955333;29;20475;-64
2021/05/11 11:43:27;;;;;;;14.73;13.63;;;19.60;99.90;;;;;;4955915;29;20811;-63
2021/05/11 11:45:53;;;;;;;14.90;13.80;;;19.50;99.90;;;;;;4955817;29;20483;-63
2021/05/11 11:48:23;;;;;;;12.90;12.00;;;19.30;99.90;;;;;;4955811;29;20456;-63
2021/05/11 11:50:57;;;;;;;13.30;12.37;;;19.30;99.90;;;;;;4955274;29;20986;-65
2021/05/11 11:53:29;;;;;;;13.03;12.13;;;19.20;99.90;;;;;;4956184;29;20926;-64
2021/05/11 11:58:36;;;;;;;10.00;9.20;;;19.30;99.90;;;;;;4924188;28;20487;-64
2021/05/11 12:01:12;;;;;;;8.93;8.33;;;19.50;99.90;;;;;;4955644;29;20486;-64
2021/05/11 12:03:39;;;;;;;8.80;8.30;;;19.60;99.90;;;;;;4955923;29;20469;-64
2021/05/11 12:06:06;;;;;;;7.00;6.60;;;19.90;99.90;;;;;;4955569;29;20483;-64
2021/05/11 12:08:33;;;;;;;6.30;6.00;;;19.90;99.90;;;;;;4955350;29;20962;-63
2021/05/11 12:11:02;;;;;;;10.50;6.83;;;19.70;99.90;;;;;;4955920;29;20534;-63
2021/05/11 12:13:31;;;;;;;6.00;5.70;;;19.60;99.90;;;;;;4956133;29;20464;-63
2021/05/11 12:16:16;;;;;;;6.40;6.00;;;19.70;99.90;;;;;;4955626;29;20460;-64
2021/05/11 12:18:59;;;;;;;6.60;6.17;;;19.70;99.90;;;;;;4955436;29;20922;-65
2021/05/11 12:21:26;;;;;;;6.30;6.00;;;19.70;99.90;;;;;;4955688;29;20484;-64
2021/05/11 12:24:04;;;;;;;8.73;8.23;;;19.60;99.90;;;;;;4955679;29;20464;-65
2021/05/11 12:26:30;;;;;;;9.20;8.70;;;19.60;99.90;;;;;;4955383;29;20440;-65
2021/05/11 12:29:07;;;;;;;8.23;7.73;;;19.50;99.90;;;;;;4955203;29;20462;-64
2021/05/11 12:31:38;;;;;;;9.23;8.53;;;19.60;99.90;;;;;;4955498;29;20487;-65
2021/05/11 12:34:06;;;;;;;9.30;8.80;;;19.60;99.90;;;;;;4955080;28;20840;-65
2021/05/11 12:36:39;;;;;;;8.57;7.73;;;19.40;99.90;;;;;;4955986;29;20519;-65
2021/05/11 12:39:21;;;;;;;11.10;10.40;;;19.30;99.90;;;;;;4955364;29;20443;-65
2021/05/11 12:41:48;;;;;;;11.23;10.53;;;19.40;99.90;;;;;;4955069;29;20480;-63
2021/05/11 12:44:28;;;;;;;10.90;10.20;;;19.40;99.90;;;;;;4955310;29;20827;-65
2021/05/11 12:46:59;;;;;;;12.37;11.47;;;19.50;99.90;;;;;;4955035;29;20474;-64
2021/05/11 12:49:25;;;;;;;12.60;11.47;;;19.50;99.90;;;;;;4955254;28;20478;-65
2021/05/11 12:51:54;;;;;;;12.90;12.00;;;19.50;99.90;;;;;;4958582;29;20480;-63
2021/05/11 12:54:26;;;;;;;14.80;13.70;;;19.50;99.90;;;;;;4958836;29;20459;-63
2021/05/11 12:59:39;;;;;;;14.07;13.17;;;19.10;99.90;;;;;;4956114;28;20447;-63
2021/05/11 13:02:15;;;;;;;17.80;16.10;;;19.00;99.90;;;;;;4958756;29;20505;-65
2021/05/11 13:26:51;;;;;;;8.40;7.90;;;18.00;99.90;;;;;;4958653;29;20427;-65
2021/05/11 13:29:28;;;;;;;8.40;7.73;;;17.80;99.90;;;;;;4958574;28;20440;-64
2021/05/11 13:31:58;;;;;;;7.27;6.77;;;17.60;99.90;;;;;;4958393;29;20833;-63
2021/05/11 13:34:24;;;;;;;7.40;6.80;;;17.50;99.90;;;;;;4958709;29;20440;-64
2021/05/11 13:36:50;;;;;;;7.10;6.60;;;17.30;99.90;;;;;;4958172;29;20969;-63
2021/05/11 13:39:16;;;;;;;6.80;6.40;;;17.10;99.90;;;;;;4958515;29;20477;-63
2021/05/11 13:41:44;;;;;;;6.67;5.83;;;17.00;99.90;;;;;;4958115;29;20478;-64
2021/05/11 13:44:11;;;;;;;6.90;6.50;;;16.80;99.90;;;;;;4958294;29;20487;-63
2021/05/11 13:46:37;;;;;;;6.23;5.80;;;16.80;99.90;;;;;;4958316;29;20452;-65
2021/05/11 13:49:04;;;;;;;6.07;5.60;;;16.80;99.90;;;;;;4958402;29;20459;-63
2021/05/11 13:51:31;;;;;;;6.80;6.30;;;16.80;99.90;;;;;;4958136;29;20891;-65
2021/05/11 13:54:00;;;;;;;6.13;5.73;;;16.80;99.90;;;;;;4957903;29;20467;-64
2021/05/11 13:56:40;;;;;;;5.77;5.37;;;16.80;99.90;;;;;;4957828;29;20522;-64
2021/05/11 14:04:36;;;;;;;4.83;4.53;;;16.70;99.90;;;;;;4959128;29;20524;-65
2021/05/11 14:07:03;;;;;;;5.80;4.03;;;16.60;99.90;;;;;;4971659;29;20440;-65
2021/05/11 14:09:29;;;;;;;4.00;3.70;;;16.50;99.90;;;;;;4965017;29;20536;-64
2021/05/11 14:11:56;;;;;;;3.70;3.50;;;16.50;99.90;;;;;;4958352;29;20486;-63
2021/05/11 14:14:22;;;;;;;3.00;2.80;;;16.40;99.90;;;;;;4957876;29;20483;-64
2021/05/11 14:16:48;;;;;;;3.00;2.80;;;16.40;99.90;;;;;;4957651;29;20538;-63
2021/05/11 14:19:15;;;;;;;5.20;2.37;;;16.50;99.90;;;;;;4957523;29;20458;-63
2021/05/11 14:21:42;;;;;;;2.77;2.67;;;16.50;99.90;;;;;;4957594;29;20475;-63
2021/05/11 14:24:09;;;;;;;2.20;2.00;;;16.40;99.90;;;;;;4957152;29;20459;-63
2021/05/11 14:26:36;;;;;;;2.40;2.30;;;16.40;99.90;;;;;;4957931;28;20535;-63
2021/05/11 14:29:03;;;;;;;3.63;2.87;;;16.40;99.90;;;;;;4957236;28;20459;-64
2021/05/11 14:31:30;;;;;;;2.00;2.00;;;16.50;99.90;;;;;;4957626;29;20476;-65
2021/05/11 14:33:56;;;;;;;2.00;1.90;;;16.40;99.90;;;;;;4957280;29;20443;-64
2021/05/11 14:36:23;;;;;;;2.43;2.23;;;16.40;99.90;;;;;;4957214;29;20459;-64
2021/05/11 14:38:50;;;;;;;2.20;2.10;;;16.50;99.90;;;;;;4957230;29;20519;-64
2021/05/11 14:41:16;;;;;;;1.93;1.83;;;16.40;99.90;;;;;;4957013;29;20482;-64
2021/05/11 14:43:43;;;;;;;2.30;2.20;;;16.30;99.90;;;;;;4957100;29;20456;-64
2021/05/11 14:46:11;;;;;;;3.67;2.67;;;16.30;99.90;;;;;;4956930;29;20479;-65
2021/05/11 14:48:37;;;;;;;2.60;2.40;;;16.20;99.90;;;;;;4956669;29;20456;-63
2021/05/11 14:51:05;;;;;;;2.10;2.00;;;16.20;99.90;;;;;;4956883;29;20476;-63
2021/05/11 14:53:32;;;;;;;2.43;2.33;;;16.30;99.90;;;;;;4956957;29;20455;-65
2021/05/11 14:55:59;;;;;;;2.70;2.50;;;16.30;99.90;;;;;;4956952;29;20459;-64
2021/05/11 14:58:26;;;;;;;2.87;2.67;;;16.20;99.90;;;;;;4956872;29;20546;-65
2021/05/11 15:00:52;;;;;;;2.10;2.00;;;16.00;99.90;;;;;;4956613;29;20487;-64
2021/05/11 15:03:18;;;;;;;1.90;1.80;;;16.00;99.90;;;;;;4956917;29;20444;-64
2021/05/11 15:05:44;;;;;;;2.13;2.03;;;15.90;99.90;;;;;;4957129;29;20464;-64
2021/05/11 15:08:11;;;;;;;1.70;1.70;;;15.80;99.90;;;;;;4956845;29;20471;-63
2021/05/11 15:10:39;;;;;;;2.20;2.10;;;15.80;99.90;;;;;;4956643;29;20902;-63
2021/05/11 15:13:06;;;;;;;1.90;1.80;;;15.90;99.90;;;;;;4956208;28;20459;-63
2021/05/11 15:15:34;;;;;;;1.90;1.80;;;15.80;99.90;;;;;;4956728;29;20459;-64
2021/05/11 15:18:05;;;;;;;1.70;1.60;;;15.70;99.90;;;;;;4956853;29;20460;-63
2021/05/11 15:20:32;;;;;;;1.67;1.60;;;15.60;99.90;;;;;;4956780;29;20446;-63
2021/05/11 15:22:59;;;;;;;1.50;1.50;;;15.60;99.90;;;;;;4956722;29;20455;-63
2021/05/11 15:25:27;;;;;;;1.97;1.87;;;15.60;99.90;;;;;;4956234;29;20507;-64
2021/05/11 15:27:55;;;;;;;1.97;1.87;;;15.50;99.90;;;;;;4956421;29;20440;-63
2021/05/11 15:30:24;;;;;;;2.07;1.97;;;15.50;99.90;;;;;;4956315;29;20551;-64
2021/05/11 15:32:53;;;;;;;1.80;1.73;;;15.50;99.90;;;;;;4956433;29;20467;-64
2021/05/11 15:35:22;;;;;;;2.77;2.13;;;15.50;99.90;;;;;;4956027;29;20722;-63
2021/05/11 15:37:53;;;;;;;2.50;2.40;;;15.50;99.90;;;;;;4955788;29;20931;-63
2021/05/11 15:40:21;;;;;;;2.90;2.80;;;15.40;99.90;;;;;;4955843;29;20538;-63
2021/05/11 15:42:48;;;;;;;3.40;3.20;;;15.40;99.90;;;;;;4955882;28;20456;-64
2021/05/11 15:45:16;;;;;;;2.80;2.70;;;15.40;99.90;;;;;;4958430;28;20471;-63
2021/05/11 15:47:52;;;;;;;2.57;2.20;;;15.40;99.90;;;;;;4956031;29;20538;-63
2021/05/11 15:50:26;;;;;;;2.30;2.20;;;15.30;99.90;;;;;;4955936;29;20919;-64
2021/05/11 15:52:54;;;;;;;2.10;2.00;;;15.30;99.90;;;;;;4956016;29;20448;-63
2021/05/11 15:55:20;;;;;;;2.50;2.03;;;15.20;99.90;;;;;;4956271;29;20805;-63
2021/05/11 15:57:49;;;;;;;2.13;2.03;;;15.10;99.90;;;;;;4955761;29;20443;-63
2021/05/11 16:00:18;;;;;;;2.60;2.40;;;15.10;99.90;;;;;;4960382;29;20459;-63
2021/05/11 16:02:44;;;;;;;2.57;2.47;;;15.00;99.90;;;;;;4956035;28;20451;-63
2021/05/11 16:05:11;;;;;;;3.50;2.70;;;15.00;99.90;;;;;;4955668;29;20483;-63
2021/05/11 16:07:38;;;;;;;2.10;2.00;;;15.00;99.90;;;;;;4956199;28;20466;-63
2021/05/11 16:10:05;;;;;;;2.67;2.47;;;15.00;99.90;;;;;;4955415;29;20510;-63
2021/05/11 16:12:32;;;;;;;2.10;2.00;;;15.00;99.90;;;;;;4955653;29;20484;-63
2021/05/11 16:15:00;;;;;;;1.80;1.80;;;15.00;99.90;;;;;;4955806;29;20466;-63
2021/05/11 16:17:27;;;;;;;2.20;2.10;;;15.00;99.90;;;;;;4955574;29;20440;-63
2021/05/11 16:19:53;;;;;;;2.47;2.30;;;14.90;99.90;;;;;;4955497;29;20510;-63
2021/05/11 16:22:20;;;;;;;2.53;2.43;;;14.90;99.90;;;;;;4955457;29;20479;-63
2021/05/11 16:24:46;;;;;;;3.30;3.13;;;14.90;99.90;;;;;;4956528;28;20455;-63
2021/05/11 16:27:12;;;;;;;2.30;2.20;;;15.00;99.90;;;;;;4961737;28;20847;-63
2021/05/11 16:29:38;;;;;;;2.50;2.30;;;15.00;99.90;;;;;;4962070;29;20458;-63
2021/05/11 16:32:05;;;;;;;2.03;1.93;;;14.90;99.90;;;;;;4961728;29;20840;-63
2021/05/11 16:34:33;;;;;;;1.93;1.83;;;14.70;99.90;;;;;;4962122;29;20448;-63
2021/05/11 16:37:02;;;;;;;1.83;1.70;;;14.70;99.90;;;;;;4961764;29;20989;-63
2021/05/11 16:39:29;;;;;;;2.10;1.77;;;14.70;99.90;;;;;;4962056;28;20440;-63
2021/05/11 16:41:56;;;;;;;1.10;1.10;;;14.70;99.90;;;;;;4961710;29;20486;-63
2021/05/11 16:44:23;;;;;;;2.87;1.60;;;14.70;99.90;;;;;;4961663;29;20514;-63
2021/05/11 16:46:49;;;;;;;2.43;1.73;;;14.70;99.90;;;;;;4961872;29;20490;-63
2021/05/11 16:49:15;;;;;;;2.07;1.93;;;14.70;99.90;;;;;;4961849;28;20443;-63
2021/05/11 16:51:43;;;;;;;1.73;1.63;;;14.70;99.90;;;;;;4961837;28;20486;-63
2021/05/11 16:54:09;;;;;;;2.43;1.80;;;14.60;99.90;;;;;;4961536;29;20794;-63
2021/05/11 16:56:35;;;;;;;1.37;1.20;;;14.60;99.90;;;;;;4961779;28;20462;-63
2021/05/11 16:59:01;;;;;;;2.00;1.90;;;14.70;99.90;;;;;;4962453;29;20459;-63
2021/05/11 17:01:28;;;;;;;1.93;1.83;;;14.70;99.90;;;;;;4961443;28;20483;-63
2021/05/11 17:03:54;;;;;;;1.63;1.53;;;14.70;99.90;;;;;;4961548;28;20459;-63
2021/05/11 17:06:20;;;;;;;2.37;1.97;;;14.70;99.90;;;;;;4961417;28;20483;-63
2021/05/11 17:08:47;;;;;;;2.50;2.30;;;14.70;99.90;;;;;;4961623;28;20455;-63
2021/05/11 17:11:14;;;;;;;2.40;2.30;;;14.70;99.90;;;;;;4961760;29;20478;-64
2021/05/11 17:13:40;;;;;;;6.87;2.80;;;14.70;99.90;;;;;;4961903;28;20490;-63
2021/05/11 17:16:07;;;;;;;2.27;2.03;;;14.70;99.90;;;;;;4961532;29;20475;-64
2021/05/11 17:18:33;;;;;;;1.83;1.77;;;14.60;99.90;;;;;;4961642;29;20458;-63
2021/05/11 17:21:00;;;;;;;2.10;2.00;;;14.60;99.90;;;;;;4961710;28;20479;-65
2021/05/11 17:23:26;;;;;;;2.10;2.00;;;14.60;99.90;;;;;;4961723;29;20459;-63
2021/05/11 17:25:54;;;;;;;1.90;1.80;;;14.70;99.90;;;;;;4961397;29;20467;-64
2021/05/11 17:28:20;;;;;;;1.93;1.80;;;14.70;99.90;;;;;;4961384;29;20482;-63
2021/05/11 17:31:00;;;;;;;1.70;1.60;;;14.70;99.90;;;;;;4961808;28;20946;-63
2021/05/11 17:33:28;;;;;;;1.57;1.47;;;14.70;99.90;;;;;;4962279;29;20507;-63
2021/05/11 17:35:55;;;;;;;1.80;1.70;;;14.70;99.90;;;;;;4961932;28;20550;-62
2021/05/11 17:38:24;;;;;;;2.70;1.97;;;14.70;99.90;;;;;;4958574;29;20820;-64
2021/05/11 17:40:51;;;;;;;1.40;1.40;;;14.60;99.90;;;;;;4958420;29;20479;-64
2021/05/11 17:43:19;;;;;;;3.77;2.17;;;14.60;99.90;;;;;;4958300;29;20459;-64
2021/05/11 17:45:46;;;;;;;1.80;1.70;;;14.60;99.90;;;;;;4958517;29;20483;-63
2021/05/11 17:48:12;;;;;;;1.57;1.47;;;14.60;99.90;;;;;;4958401;29;20463;-64
2021/05/11 17:50:40;;;;;;;1.93;1.70;;;14.60;99.90;;;;;;4958052;29;20486;-64
2021/05/11 17:53:06;;;;;;;1.77;1.20;;;14.50;99.90;;;;;;4957963;29;20460;-66
2021/05/11 17:55:33;;;;;;;1.27;1.00;;;14.50;99.90;;;;;;4958114;29;20509;-64
2021/05/11 17:58:00;;;;;;;1.23;1.00;;;14.50;99.90;;;;;;4957949;29;20460;-63
2021/05/11 18:00:28;;;;;;;1.60;1.50;;;14.50;99.90;;;;;;4958220;29;20467;-63
2021/05/11 18:02:55;;;;;;;2.50;1.17;;;14.50;99.90;;;;;;4958141;29;20436;-63
2021/05/11 18:05:21;;;;;;;1.43;1.43;;;14.40;99.90;;;;;;4957858;29;20484;-64
2021/05/11 18:07:48;;;;;;;1.20;1.20;;;14.50;99.90;;;;;;4957712;29;20467;-63
2021/05/11 18:10:14;;;;;;;1.90;1.50;;;14.50;99.90;;;;;;4957771;29;20478;-62
2021/05/11 18:12:41;;;;;;;1.57;1.47;;;14.50;99.90;;;;;;4957697;29;20476;-63
2021/05/11 18:15:08;;;;;;;2.33;1.70;;;14.50;99.90;;;;;;4957706;29;20455;-62
2021/05/11 18:17:35;;;;;;;1.30;1.30;;;14.50;99.90;;;;;;4957537;29;20443;-65
2021/05/11 18:20:03;;;;;;;2.53;1.67;;;14.50;99.90;;;;;;4958289;29;20550;-63
2021/05/11 18:22:29;;;;;;;1.83;1.73;;;14.40;99.90;;;;;;4957408;29;20534;-63
2021/05/11 18:24:55;;;;;;;1.30;1.30;;;14.40;99.90;;;;;;4957185;29;20452;-63
2021/05/11 18:27:22;;;;;;;2.07;1.93;;;14.40;99.90;;;;;;4957174;29;20478;-63
2021/05/11 18:29:48;;;;;;;2.13;2.03;;;14.40;99.90;;;;;;4957677;29;20542;-63
2021/05/11 18:32:15;;;;;;;2.57;2.00;;;14.20;99.90;;;;;;4957249;29;21005;-64
2021/05/11 18:34:42;;;;;;;1.80;1.70;;;14.30;99.90;;;;;;4957272;29;20825;-63
2021/05/11 18:37:15;;;;;;;2.20;2.10;;;14.30;99.90;;;;;;4957543;29;20726;-63
2021/05/11 18:39:41;;;;;;;2.00;1.60;;;14.30;99.90;;;;;;4957446;29;20447;-63
2021/05/11 18:42:07;;;;;;;2.80;2.60;;;14.20;99.90;;;;;;4957262;29;20566;-62
2021/05/11 18:44:34;;;;;;;2.80;2.70;;;14.30;99.90;;;;;;4957042;29;20796;-63
2021/05/11 18:47:00;;;;;;;3.13;2.93;;;14.30;99.90;;;;;;4957611;29;20499;-62
2021/05/11 18:49:26;;;;;;;6.53;4.77;;;14.30;99.90;;;;;;4956574;28;20480;-63
2021/05/11 18:51:53;;;;;;;4.30;4.00;;;14.30;99.90;;;;;;4957041;29;20475;-63
2021/05/11 18:54:20;;;;;;;4.90;4.50;;;14.30;99.90;;;;;;4956828;29;20456;-63
2021/05/11 18:56:47;;;;;;;3.93;3.70;;;14.30;99.90;;;;;;4956845;29;20969;-64
2021/05/11 18:59:13;;;;;;;4.50;4.10;;;14.30;99.90;;;;;;4957051;29;20483;-64
2021/05/11 19:01:40;;;;;;;4.13;3.80;;;14.20;99.90;;;;;;4956821;29;20942;-63
2021/05/11 19:04:09;;;;;;;3.87;3.57;;;14.20;99.90;;;;;;4956930;29;20455;-62
2021/05/11 19:06:35;;;;;;;4.63;3.87;;;14.20;99.90;;;;;;4957127;29;20475;-63
2021/05/11 19:09:02;;;;;;;4.43;3.40;;;14.20;99.90;;;;;;4956999;29;20444;-62
2021/05/11 19:11:29;;;;;;;4.60;4.20;;;14.20;99.90;;;;;;4956785;29;20571;-64
2021/05/11 19:13:56;;;;;;;7.00;4.40;;;14.10;99.90;;;;;;4956938;29;20502;-63
2021/05/11 19:16:22;;;;;;;3.13;2.93;;;14.20;99.90;;;;;;4956412;29;20844;-62
2021/05/11 19:18:49;;;;;;;4.13;3.83;;;14.20;99.90;;;;;;4956766;29;20507;-62
2021/05/11 19:21:16;;;;;;;3.60;3.30;;;14.10;99.90;;;;;;4956633;29;20546;-63
2021/05/11 19:23:42;;;;;;;2.93;2.73;;;14.10;99.90;;;;;;4956620;29;20439;-63
2021/05/11 19:26:13;;;;;;;3.10;2.90;;;14.10;99.90;;;;;;4956463;29;20485;-62
2021/05/11 19:28:40;;;;;;;3.17;2.60;;;14.10;99.90;;;;;;4956446;29;20444;-64
2021/05/11 19:31:08;;;;;;;3.00;2.60;;;14.10;99.90;;;;;;4956824;29;21061;-64